sensor_id;sensor_type;location;lat;lon;timestamp;P1;durP1;ratioP1;P2;durP2;ratioP2
60292;SDS011;52402;52.670;6.750;2022-07-09T00:01:38;17.98;;;10.32;;
60292;SDS011;52402;52.670;6.750;2022-07-09T00:04:07;18.27;;;10.13;;
60292;SDS011;52402;52.670;6.750;2022-07-09T00:06:32;15.32;;;10.27;;
60292;SDS011;52402;52.670;6.750;2022-07-09T00:08:58;17.50;;;10.00;;
60292;SDS011;52402;52.670;6.750;2022-07-09T00:11:24;15.80;;;10.18;;
60292;SDS011;52402;52.670;6.750;2022-07-09T00:13:49;16.88;;;9.70;;
60292;SDS011;52402;52.670;6.750;2022-07-09T00:16:15;16.00;;;10.60;;
60292;SDS011;52402;52.670;6.750;2022-07-09T00:18:41;17.05;;;10.80;;
60292;SDS011;52402;52.670;6.750;2022-07-09T00:21:06;16.83;;;10.32;;
60292;SDS011;52402;52.670;6.750;2022-07-09T00:23:32;17.50;;;10.52;;
60292;SDS011;52402;52.670;6.750;2022-07-09T00:25:58;17.65;;;10.27;;
60292;SDS011;52402;52.670;6.750;2022-07-09T00:28:24;16.90;;;9.98;;
60292;SDS011;52402;52.670;6.750;2022-07-09T00:30:49;16.30;;;8.85;;
60292;SDS011;52402;52.670;6.750;2022-07-09T00:33:15;17.88;;;9.48;;
60292;SDS011;52402;52.670;6.750;2022-07-09T00:35:41;13.95;;;9.35;;
60292;SDS011;52402;52.670;6.750;2022-07-09T00:38:06;16.58;;;10.13;;
60292;SDS011;52402;52.670;6.750;2022-07-09T00:40:32;13.80;;;9.20;;
60292;SDS011;52402;52.670;6.750;2022-07-09T00:42:59;16.85;;;9.65;;
60292;SDS011;52402;52.670;6.750;2022-07-09T00:45:25;16.77;;;9.90;;
60292;SDS011;52402;52.670;6.750;2022-07-09T00:47:51;15.38;;;9.38;;
60292;SDS011;52402;52.670;6.750;2022-07-09T00:50:16;17.65;;;9.70;;
60292;SDS011;52402;52.670;6.750;2022-07-09T00:52:43;14.05;;;8.35;;
60292;SDS011;52402;52.670;6.750;2022-07-09T00:55:09;17.95;;;9.57;;
60292;SDS011;52402;52.670;6.750;2022-07-09T00:57:36;13.88;;;8.38;;
60292;SDS011;52402;52.670;6.750;2022-07-09T01:00:04;17.42;;;9.65;;
60292;SDS011;52402;52.670;6.750;2022-07-09T01:02:30;13.02;;;9.23;;
60292;SDS011;52402;52.670;6.750;2022-07-09T01:04:56;13.85;;;8.85;;
60292;SDS011;52402;52.670;6.750;2022-07-09T01:07:24;14.98;;;9.73;;
60292;SDS011;52402;52.670;6.750;2022-07-09T01:09:50;19.25;;;9.45;;
60292;SDS011;52402;52.670;6.750;2022-07-09T01:12:15;17.33;;;9.68;;
60292;SDS011;52402;52.670;6.750;2022-07-09T01:14:41;13.40;;;9.27;;
60292;SDS011;52402;52.670;6.750;2022-07-09T01:17:07;17.23;;;9.85;;
60292;SDS011;52402;52.670;6.750;2022-07-09T01:19:33;18.95;;;11.20;;
60292;SDS011;52402;52.670;6.750;2022-07-09T01:21:59;17.23;;;10.50;;
60292;SDS011;52402;52.670;6.750;2022-07-09T01:24:25;18.33;;;9.93;;
60292;SDS011;52402;52.670;6.750;2022-07-09T01:26:51;17.60;;;11.93;;
60292;SDS011;52402;52.670;6.750;2022-07-09T01:29:19;16.90;;;11.07;;
60292;SDS011;52402;52.670;6.750;2022-07-09T01:31:48;17.25;;;11.25;;
60292;SDS011;52402;52.670;6.750;2022-07-09T01:34:13;16.30;;;9.65;;
60292;SDS011;52402;52.670;6.750;2022-07-09T01:36:39;19.58;;;10.70;;
60292;SDS011;52402;52.670;6.750;2022-07-09T01:39:04;21.38;;;11.57;;
60292;SDS011;52402;52.670;6.750;2022-07-09T01:41:30;20.10;;;12.70;;
60292;SDS011;52402;52.670;6.750;2022-07-09T01:43:57;20.38;;;11.75;;
60292;SDS011;52402;52.670;6.750;2022-07-09T01:46:23;19.35;;;12.32;;
60292;SDS011;52402;52.670;6.750;2022-07-09T01:48:48;20.25;;;11.50;;
60292;SDS011;52402;52.670;6.750;2022-07-09T01:51:14;18.02;;;11.02;;
60292;SDS011;52402;52.670;6.750;2022-07-09T01:53:40;20.63;;;11.93;;
60292;SDS011;52402;52.670;6.750;2022-07-09T01:56:06;20.25;;;13.07;;
60292;SDS011;52402;52.670;6.750;2022-07-09T01:58:33;21.42;;;14.32;;
60292;SDS011;52402;52.670;6.750;2022-07-09T02:00:59;18.65;;;12.98;;
60292;SDS011;52402;52.670;6.750;2022-07-09T02:03:25;17.40;;;12.77;;
60292;SDS011;52402;52.670;6.750;2022-07-09T02:05:51;24.75;;;14.27;;
60292;SDS011;52402;52.670;6.750;2022-07-09T02:08:16;19.88;;;12.90;;
60292;SDS011;52402;52.670;6.750;2022-07-09T02:10:42;19.42;;;13.60;;
60292;SDS011;52402;52.670;6.750;2022-07-09T02:13:07;19.33;;;14.00;;
60292;SDS011;52402;52.670;6.750;2022-07-09T02:15:33;21.33;;;14.40;;
60292;SDS011;52402;52.670;6.750;2022-07-09T02:17:59;23.63;;;15.60;;
60292;SDS011;52402;52.670;6.750;2022-07-09T02:20:25;22.80;;;15.10;;
60292;SDS011;52402;52.670;6.750;2022-07-09T02:22:51;24.23;;;15.50;;
60292;SDS011;52402;52.670;6.750;2022-07-09T02:25:16;21.60;;;16.52;;
60292;SDS011;52402;52.670;6.750;2022-07-09T02:27:42;19.55;;;14.23;;
60292;SDS011;52402;52.670;6.750;2022-07-09T02:30:08;19.40;;;12.77;;
60292;SDS011;52402;52.670;6.750;2022-07-09T02:32:34;23.00;;;15.82;;
60292;SDS011;52402;52.670;6.750;2022-07-09T02:35:01;22.38;;;16.08;;
60292;SDS011;52402;52.670;6.750;2022-07-09T02:37:27;22.02;;;16.20;;
60292;SDS011;52402;52.670;6.750;2022-07-09T02:39:53;21.73;;;16.50;;
60292;SDS011;52402;52.670;6.750;2022-07-09T02:42:18;21.88;;;15.73;;
60292;SDS011;52402;52.670;6.750;2022-07-09T02:44:44;22.50;;;16.55;;
60292;SDS011;52402;52.670;6.750;2022-07-09T02:47:09;19.67;;;16.33;;
60292;SDS011;52402;52.670;6.750;2022-07-09T02:49:35;22.63;;;16.00;;
60292;SDS011;52402;52.670;6.750;2022-07-09T02:52:01;20.48;;;15.75;;
60292;SDS011;52402;52.670;6.750;2022-07-09T02:54:30;24.30;;;17.38;;
60292;SDS011;52402;52.670;6.750;2022-07-09T02:56:56;21.23;;;15.25;;
60292;SDS011;52402;52.670;6.750;2022-07-09T02:59:22;20.05;;;15.20;;
60292;SDS011;52402;52.670;6.750;2022-07-09T03:01:48;20.73;;;16.00;;
60292;SDS011;52402;52.670;6.750;2022-07-09T03:04:13;21.92;;;16.50;;
60292;SDS011;52402;52.670;6.750;2022-07-09T03:06:39;24.75;;;17.15;;
60292;SDS011;52402;52.670;6.750;2022-07-09T03:09:05;21.02;;;15.15;;
60292;SDS011;52402;52.670;6.750;2022-07-09T03:11:31;23.38;;;16.80;;
60292;SDS011;52402;52.670;6.750;2022-07-09T03:13:57;21.27;;;15.73;;
60292;SDS011;52402;52.670;6.750;2022-07-09T03:16:22;23.23;;;16.00;;
60292;SDS011;52402;52.670;6.750;2022-07-09T03:18:48;21.67;;;16.35;;
60292;SDS011;52402;52.670;6.750;2022-07-09T03:21:14;22.85;;;16.70;;
60292;SDS011;52402;52.670;6.750;2022-07-09T03:23:39;25.08;;;16.15;;
60292;SDS011;52402;52.670;6.750;2022-07-09T03:26:05;20.13;;;15.55;;
60292;SDS011;52402;52.670;6.750;2022-07-09T03:28:32;19.35;;;14.82;;
60292;SDS011;52402;52.670;6.750;2022-07-09T03:30:58;20.52;;;15.13;;
60292;SDS011;52402;52.670;6.750;2022-07-09T03:33:24;22.48;;;16.00;;
60292;SDS011;52402;52.670;6.750;2022-07-09T03:35:50;22.02;;;15.32;;
60292;SDS011;52402;52.670;6.750;2022-07-09T03:38:15;20.20;;;15.38;;
60292;SDS011;52402;52.670;6.750;2022-07-09T03:40:41;21.88;;;15.43;;
60292;SDS011;52402;52.670;6.750;2022-07-09T03:43:07;19.48;;;15.57;;
60292;SDS011;52402;52.670;6.750;2022-07-09T03:45:32;21.08;;;16.35;;
60292;SDS011;52402;52.670;6.750;2022-07-09T03:47:58;17.67;;;14.18;;
60292;SDS011;52402;52.670;6.750;2022-07-09T03:50:24;19.33;;;14.98;;
60292;SDS011;52402;52.670;6.750;2022-07-09T03:52:49;17.15;;;13.45;;
60292;SDS011;52402;52.670;6.750;2022-07-09T03:55:15;18.15;;;14.32;;
60292;SDS011;52402;52.670;6.750;2022-07-09T03:57:43;21.00;;;14.10;;
60292;SDS011;52402;52.670;6.750;2022-07-09T04:00:09;18.63;;;14.35;;
60292;SDS011;52402;52.670;6.750;2022-07-09T04:02:35;18.75;;;13.75;;
60292;SDS011;52402;52.670;6.750;2022-07-09T04:05:00;17.45;;;13.50;;
60292;SDS011;52402;52.670;6.750;2022-07-09T04:07:26;15.55;;;13.57;;
60292;SDS011;52402;52.670;6.750;2022-07-09T04:09:52;18.80;;;14.50;;
60292;SDS011;52402;52.670;6.750;2022-07-09T04:12:19;18.50;;;13.60;;
60292;SDS011;52402;52.670;6.750;2022-07-09T04:14:45;16.52;;;13.45;;
60292;SDS011;52402;52.670;6.750;2022-07-09T04:17:10;14.65;;;12.20;;
60292;SDS011;52402;52.670;6.750;2022-07-09T04:19:36;18.50;;;14.10;;
60292;SDS011;52402;52.670;6.750;2022-07-09T04:22:02;18.52;;;14.25;;
60292;SDS011;52402;52.670;6.750;2022-07-09T04:24:28;17.08;;;14.40;;
60292;SDS011;52402;52.670;6.750;2022-07-09T04:26:54;18.95;;;15.15;;
60292;SDS011;52402;52.670;6.750;2022-07-09T04:29:19;15.80;;;14.15;;
60292;SDS011;52402;52.670;6.750;2022-07-09T04:31:47;17.85;;;13.48;;
60292;SDS011;52402;52.670;6.750;2022-07-09T04:34:13;19.30;;;14.20;;
60292;SDS011;52402;52.670;6.750;2022-07-09T04:36:39;18.05;;;14.10;;
60292;SDS011;52402;52.670;6.750;2022-07-09T04:39:04;18.02;;;14.43;;
60292;SDS011;52402;52.670;6.750;2022-07-09T04:41:30;20.75;;;15.57;;
60292;SDS011;52402;52.670;6.750;2022-07-09T04:43:56;17.90;;;14.02;;
60292;SDS011;52402;52.670;6.750;2022-07-09T04:46:21;17.85;;;14.55;;
60292;SDS011;52402;52.670;6.750;2022-07-09T04:48:47;15.90;;;14.00;;
60292;SDS011;52402;52.670;6.750;2022-07-09T04:51:13;15.50;;;13.60;;
60292;SDS011;52402;52.670;6.750;2022-07-09T04:53:39;17.65;;;14.18;;
60292;SDS011;52402;52.670;6.750;2022-07-09T04:56:05;17.13;;;14.35;;
60292;SDS011;52402;52.670;6.750;2022-07-09T04:58:31;15.95;;;13.43;;
60292;SDS011;52402;52.670;6.750;2022-07-09T05:00:59;18.30;;;15.07;;
60292;SDS011;52402;52.670;6.750;2022-07-09T05:03:25;18.38;;;13.77;;
60292;SDS011;52402;52.670;6.750;2022-07-09T05:05:51;17.73;;;13.43;;
60292;SDS011;52402;52.670;6.750;2022-07-09T05:08:17;19.27;;;13.85;;
60292;SDS011;52402;52.670;6.750;2022-07-09T05:10:43;17.05;;;12.50;;
60292;SDS011;52402;52.670;6.750;2022-07-09T05:13:09;19.75;;;13.38;;
60292;SDS011;52402;52.670;6.750;2022-07-09T05:15:35;17.08;;;13.23;;
60292;SDS011;52402;52.670;6.750;2022-07-09T05:18:01;15.10;;;12.27;;
60292;SDS011;52402;52.670;6.750;2022-07-09T05:20:27;15.63;;;13.00;;
60292;SDS011;52402;52.670;6.750;2022-07-09T05:22:53;17.92;;;13.15;;
60292;SDS011;52402;52.670;6.750;2022-07-09T05:25:18;17.02;;;12.57;;
60292;SDS011;52402;52.670;6.750;2022-07-09T05:27:44;16.60;;;12.60;;
60292;SDS011;52402;52.670;6.750;2022-07-09T05:30:12;12.75;;;11.25;;
60292;SDS011;52402;52.670;6.750;2022-07-09T05:32:42;15.48;;;11.70;;
60292;SDS011;52402;52.670;6.750;2022-07-09T05:35:08;14.02;;;11.07;;
60292;SDS011;52402;52.670;6.750;2022-07-09T05:37:40;15.85;;;12.30;;
60292;SDS011;52402;52.670;6.750;2022-07-09T05:40:09;16.08;;;12.38;;
60292;SDS011;52402;52.670;6.750;2022-07-09T05:42:36;16.17;;;11.30;;
60292;SDS011;52402;52.670;6.750;2022-07-09T05:45:02;14.73;;;11.82;;
60292;SDS011;52402;52.670;6.750;2022-07-09T05:47:27;13.55;;;10.80;;
60292;SDS011;52402;52.670;6.750;2022-07-09T05:49:53;13.80;;;11.18;;
60292;SDS011;52402;52.670;6.750;2022-07-09T05:52:19;13.57;;;11.25;;
60292;SDS011;52402;52.670;6.750;2022-07-09T05:54:44;13.30;;;10.52;;
60292;SDS011;52402;52.670;6.750;2022-07-09T05:57:10;15.13;;;11.18;;
60292;SDS011;52402;52.670;6.750;2022-07-09T05:59:35;15.25;;;10.25;;
60292;SDS011;52402;52.670;6.750;2022-07-09T06:02:01;14.45;;;10.43;;
60292;SDS011;52402;52.670;6.750;2022-07-09T06:04:28;13.32;;;10.63;;
60292;SDS011;52402;52.670;6.750;2022-07-09T06:06:53;13.95;;;10.48;;
60292;SDS011;52402;52.670;6.750;2022-07-09T06:09:19;13.02;;;10.02;;
60292;SDS011;52402;52.670;6.750;2022-07-09T06:11:45;15.68;;;10.52;;
60292;SDS011;52402;52.670;6.750;2022-07-09T06:14:10;11.75;;;9.23;;
60292;SDS011;52402;52.670;6.750;2022-07-09T06:16:36;14.07;;;9.75;;
60292;SDS011;52402;52.670;6.750;2022-07-09T06:19:01;13.25;;;9.60;;
60292;SDS011;52402;52.670;6.750;2022-07-09T06:21:27;12.60;;;9.20;;
60292;SDS011;52402;52.670;6.750;2022-07-09T06:23:53;12.82;;;8.30;;
60292;SDS011;52402;52.670;6.750;2022-07-09T06:26:18;14.38;;;8.27;;
60292;SDS011;52402;52.670;6.750;2022-07-09T06:28:44;10.95;;;8.35;;
60292;SDS011;52402;52.670;6.750;2022-07-09T06:31:11;9.05;;;7.22;;
60292;SDS011;52402;52.670;6.750;2022-07-09T06:33:37;9.52;;;7.25;;
60292;SDS011;52402;52.670;6.750;2022-07-09T06:36:02;9.88;;;7.07;;
60292;SDS011;52402;52.670;6.750;2022-07-09T06:38:28;11.07;;;7.15;;
60292;SDS011;52402;52.670;6.750;2022-07-09T06:40:54;9.88;;;6.63;;
60292;SDS011;52402;52.670;6.750;2022-07-09T06:43:21;7.63;;;6.15;;
60292;SDS011;52402;52.670;6.750;2022-07-09T06:45:47;11.27;;;6.65;;
60292;SDS011;52402;52.670;6.750;2022-07-09T06:48:12;10.20;;;6.03;;
60292;SDS011;52402;52.670;6.750;2022-07-09T06:50:38;9.55;;;6.28;;
60292;SDS011;52402;52.670;6.750;2022-07-09T06:53:03;8.25;;;6.25;;
60292;SDS011;52402;52.670;6.750;2022-07-09T06:55:30;9.07;;;6.43;;
60292;SDS011;52402;52.670;6.750;2022-07-09T06:57:56;9.20;;;6.18;;
60292;SDS011;52402;52.670;6.750;2022-07-09T07:00:22;9.75;;;6.25;;
60292;SDS011;52402;52.670;6.750;2022-07-09T07:02:49;10.00;;;6.72;;
60292;SDS011;52402;52.670;6.750;2022-07-09T07:05:15;11.75;;;6.32;;
60292;SDS011;52402;52.670;6.750;2022-07-09T07:07:40;7.80;;;5.60;;
60292;SDS011;52402;52.670;6.750;2022-07-09T07:10:06;8.60;;;6.60;;
60292;SDS011;52402;52.670;6.750;2022-07-09T07:12:33;11.02;;;6.32;;
60292;SDS011;52402;52.670;6.750;2022-07-09T07:14:59;8.52;;;5.78;;
60292;SDS011;52402;52.670;6.750;2022-07-09T07:17:25;8.65;;;5.65;;
60292;SDS011;52402;52.670;6.750;2022-07-09T07:19:50;10.30;;;5.80;;
60292;SDS011;52402;52.670;6.750;2022-07-09T07:22:16;8.35;;;5.53;;
60292;SDS011;52402;52.670;6.750;2022-07-09T07:24:41;8.40;;;5.40;;
60292;SDS011;52402;52.670;6.750;2022-07-09T07:27:07;8.25;;;5.70;;
60292;SDS011;52402;52.670;6.750;2022-07-09T07:29:32;9.05;;;6.00;;
60292;SDS011;52402;52.670;6.750;2022-07-09T07:31:58;9.43;;;5.47;;
60292;SDS011;52402;52.670;6.750;2022-07-09T07:34:24;7.63;;;4.82;;
60292;SDS011;52402;52.670;6.750;2022-07-09T07:36:50;8.20;;;5.32;;
60292;SDS011;52402;52.670;6.750;2022-07-09T07:39:17;9.13;;;5.10;;
60292;SDS011;52402;52.670;6.750;2022-07-09T07:44:12;7.68;;;5.47;;
60292;SDS011;52402;52.670;6.750;2022-07-09T07:46:37;8.82;;;4.95;;
60292;SDS011;52402;52.670;6.750;2022-07-09T07:49:03;9.90;;;5.65;;
60292;SDS011;52402;52.670;6.750;2022-07-09T07:51:29;8.98;;;5.20;;
60292;SDS011;52402;52.670;6.750;2022-07-09T07:53:54;7.78;;;5.43;;
60292;SDS011;52402;52.670;6.750;2022-07-09T07:56:20;9.32;;;5.07;;
60292;SDS011;52402;52.670;6.750;2022-07-09T07:58:45;10.25;;;5.38;;
60292;SDS011;52402;52.670;6.750;2022-07-09T08:01:11;8.90;;;5.30;;
60292;SDS011;52402;52.670;6.750;2022-07-09T08:03:36;7.78;;;4.90;;
60292;SDS011;52402;52.670;6.750;2022-07-09T08:06:02;7.72;;;4.72;;
60292;SDS011;52402;52.670;6.750;2022-07-09T08:08:28;9.45;;;5.10;;
60292;SDS011;52402;52.670;6.750;2022-07-09T08:10:53;7.82;;;4.82;;
60292;SDS011;52402;52.670;6.750;2022-07-09T08:13:19;7.63;;;5.00;;
60292;SDS011;52402;52.670;6.750;2022-07-09T08:15:45;8.73;;;4.47;;
60292;SDS011;52402;52.670;6.750;2022-07-09T08:18:11;7.72;;;4.60;;
60292;SDS011;52402;52.670;6.750;2022-07-09T08:20:40;6.82;;;4.07;;
60292;SDS011;52402;52.670;6.750;2022-07-09T08:23:06;6.15;;;3.80;;
60292;SDS011;52402;52.670;6.750;2022-07-09T08:25:32;6.65;;;3.72;;
60292;SDS011;52402;52.670;6.750;2022-07-09T08:27:58;7.47;;;3.60;;
60292;SDS011;52402;52.670;6.750;2022-07-09T08:30:24;7.07;;;3.60;;
60292;SDS011;52402;52.670;6.750;2022-07-09T08:32:49;9.05;;;4.10;;
60292;SDS011;52402;52.670;6.750;2022-07-09T08:35:15;7.85;;;3.65;;
60292;SDS011;52402;52.670;6.750;2022-07-09T08:37:41;6.90;;;4.18;;
60292;SDS011;52402;52.670;6.750;2022-07-09T08:40:06;8.02;;;3.90;;
60292;SDS011;52402;52.670;6.750;2022-07-09T08:42:32;6.57;;;3.80;;
60292;SDS011;52402;52.670;6.750;2022-07-09T08:44:58;6.28;;;3.53;;
60292;SDS011;52402;52.670;6.750;2022-07-09T08:47:23;8.88;;;4.03;;
60292;SDS011;52402;52.670;6.750;2022-07-09T08:49:50;6.63;;;3.95;;
60292;SDS011;52402;52.670;6.750;2022-07-09T08:52:20;5.95;;;3.58;;
60292;SDS011;52402;52.670;6.750;2022-07-09T08:54:45;6.53;;;3.60;;
60292;SDS011;52402;52.670;6.750;2022-07-09T08:57:12;6.28;;;3.75;;
60292;SDS011;52402;52.670;6.750;2022-07-09T08:59:37;5.32;;;3.53;;
60292;SDS011;52402;52.670;6.750;2022-07-09T09:02:04;6.75;;;3.67;;
60292;SDS011;52402;52.670;6.750;2022-07-09T09:04:31;5.57;;;3.40;;
60292;SDS011;52402;52.670;6.750;2022-07-09T09:06:59;5.97;;;2.92;;
60292;SDS011;52402;52.670;6.750;2022-07-09T09:09:25;5.40;;;3.60;;
60292;SDS011;52402;52.670;6.750;2022-07-09T09:11:50;6.00;;;3.17;;
60292;SDS011;52402;52.670;6.750;2022-07-09T09:14:18;6.05;;;3.00;;
60292;SDS011;52402;52.670;6.750;2022-07-09T09:16:45;6.20;;;3.30;;
60292;SDS011;52402;52.670;6.750;2022-07-09T09:19:11;6.10;;;2.90;;
60292;SDS011;52402;52.670;6.750;2022-07-09T09:21:37;3.97;;;2.47;;
60292;SDS011;52402;52.670;6.750;2022-07-09T09:24:03;6.50;;;3.17;;
60292;SDS011;52402;52.670;6.750;2022-07-09T09:26:29;4.80;;;2.75;;
60292;SDS011;52402;52.670;6.750;2022-07-09T09:31:27;3.90;;;2.50;;
60292;SDS011;52402;52.670;6.750;2022-07-09T09:33:54;4.93;;;2.65;;
60292;SDS011;52402;52.670;6.750;2022-07-09T09:36:28;4.32;;;2.10;;
60292;SDS011;52402;52.670;6.750;2022-07-09T09:39:20;3.83;;;2.67;;
60292;SDS011;52402;52.670;6.750;2022-07-09T09:44:22;6.32;;;2.40;;
60292;SDS011;52402;52.670;6.750;2022-07-09T09:46:51;4.82;;;2.60;;
60292;SDS011;52402;52.670;6.750;2022-07-09T09:49:17;4.00;;;2.13;;
60292;SDS011;52402;52.670;6.750;2022-07-09T09:51:49;4.40;;;2.08;;
60292;SDS011;52402;52.670;6.750;2022-07-09T09:54:28;5.32;;;2.38;;
60292;SDS011;52402;52.670;6.750;2022-07-09T09:56:57;4.63;;;2.20;;
60292;SDS011;52402;52.670;6.750;2022-07-09T09:59:23;6.43;;;2.10;;
60292;SDS011;52402;52.670;6.750;2022-07-09T10:01:49;7.03;;;2.50;;
60292;SDS011;52402;52.670;6.750;2022-07-09T10:04:15;4.40;;;2.10;;
60292;SDS011;52402;52.670;6.750;2022-07-09T10:06:41;6.15;;;2.17;;
60292;SDS011;52402;52.670;6.750;2022-07-09T10:09:08;4.55;;;2.15;;
60292;SDS011;52402;52.670;6.750;2022-07-09T10:14:05;4.28;;;2.00;;
60292;SDS011;52402;52.670;6.750;2022-07-09T10:16:35;5.13;;;2.00;;
60292;SDS011;52402;52.670;6.750;2022-07-09T10:19:04;3.30;;;1.83;;
60292;SDS011;52402;52.670;6.750;2022-07-09T10:21:38;4.40;;;1.95;;
60292;SDS011;52402;52.670;6.750;2022-07-09T10:24:06;3.63;;;1.80;;
60292;SDS011;52402;52.670;6.750;2022-07-09T10:26:43;3.10;;;1.42;;
60292;SDS011;52402;52.670;6.750;2022-07-09T10:31:45;4.00;;;1.95;;
60292;SDS011;52402;52.670;6.750;2022-07-09T10:34:15;4.82;;;1.90;;
60292;SDS011;52402;52.670;6.750;2022-07-09T10:37:30;4.28;;;1.80;;
60292;SDS011;52402;52.670;6.750;2022-07-09T10:40:07;2.78;;;1.50;;
60292;SDS011;52402;52.670;6.750;2022-07-09T10:42:37;4.97;;;1.70;;
60292;SDS011;52402;52.670;6.750;2022-07-09T10:45:22;3.70;;;1.50;;
60292;SDS011;52402;52.670;6.750;2022-07-09T10:47:50;3.10;;;1.42;;
60292;SDS011;52402;52.670;6.750;2022-07-09T10:50:18;3.17;;;1.48;;
60292;SDS011;52402;52.670;6.750;2022-07-09T10:52:44;4.43;;;2.05;;
60292;SDS011;52402;52.670;6.750;2022-07-09T10:55:10;4.50;;;1.70;;
60292;SDS011;52402;52.670;6.750;2022-07-09T10:57:36;3.45;;;1.63;;
60292;SDS011;52402;52.670;6.750;2022-07-09T11:00:02;4.82;;;1.50;;
60292;SDS011;52402;52.670;6.750;2022-07-09T11:02:28;4.85;;;1.90;;
60292;SDS011;52402;52.670;6.750;2022-07-09T11:04:54;3.33;;;1.50;;
60292;SDS011;52402;52.670;6.750;2022-07-09T11:07:23;4.03;;;1.70;;
60292;SDS011;52402;52.670;6.750;2022-07-09T11:09:50;5.97;;;1.98;;
60292;SDS011;52402;52.670;6.750;2022-07-09T11:12:17;5.65;;;1.90;;
60292;SDS011;52402;52.670;6.750;2022-07-09T11:14:46;3.55;;;1.90;;
60292;SDS011;52402;52.670;6.750;2022-07-09T11:17:14;5.25;;;1.80;;
60292;SDS011;52402;52.670;6.750;2022-07-09T11:19:43;5.88;;;1.70;;
60292;SDS011;52402;52.670;6.750;2022-07-09T11:22:09;7.63;;;1.75;;
60292;SDS011;52402;52.670;6.750;2022-07-09T11:24:34;5.28;;;1.60;;
60292;SDS011;52402;52.670;6.750;2022-07-09T11:27:03;5.28;;;1.80;;
60292;SDS011;52402;52.670;6.750;2022-07-09T11:29:30;7.43;;;1.65;;
60292;SDS011;52402;52.670;6.750;2022-07-09T11:31:56;4.22;;;1.52;;
60292;SDS011;52402;52.670;6.750;2022-07-09T11:34:21;5.25;;;1.73;;
60292;SDS011;52402;52.670;6.750;2022-07-09T11:36:51;4.38;;;1.58;;
60292;SDS011;52402;52.670;6.750;2022-07-09T11:41:53;6.05;;;1.90;;
60292;SDS011;52402;52.670;6.750;2022-07-09T11:47:05;6.57;;;1.90;;
60292;SDS011;52402;52.670;6.750;2022-07-09T11:49:39;5.32;;;1.55;;
60292;SDS011;52402;52.670;6.750;2022-07-09T11:52:18;4.25;;;1.75;;
60292;SDS011;52402;52.670;6.750;2022-07-09T11:54:55;5.85;;;1.60;;
60292;SDS011;52402;52.670;6.750;2022-07-09T11:57:25;7.03;;;2.00;;
60292;SDS011;52402;52.670;6.750;2022-07-09T11:59:51;4.75;;;1.80;;
60292;SDS011;52402;52.670;6.750;2022-07-09T12:02:29;4.85;;;1.60;;
60292;SDS011;52402;52.670;6.750;2022-07-09T12:04:56;5.38;;;1.85;;
60292;SDS011;52402;52.670;6.750;2022-07-09T12:07:23;5.93;;;1.67;;
60292;SDS011;52402;52.670;6.750;2022-07-09T12:09:59;4.28;;;1.90;;
60292;SDS011;52402;52.670;6.750;2022-07-09T12:12:35;5.88;;;1.90;;
60292;SDS011;52402;52.670;6.750;2022-07-09T12:15:02;6.53;;;2.45;;
60292;SDS011;52402;52.670;6.750;2022-07-09T12:17:29;5.88;;;2.13;;
60292;SDS011;52402;52.670;6.750;2022-07-09T12:19:58;5.07;;;2.08;;
60292;SDS011;52402;52.670;6.750;2022-07-09T12:22:24;6.70;;;2.10;;
60292;SDS011;52402;52.670;6.750;2022-07-09T12:24:53;6.22;;;2.25;;
60292;SDS011;52402;52.670;6.750;2022-07-09T12:27:19;8.05;;;2.35;;
60292;SDS011;52402;52.670;6.750;2022-07-09T12:29:45;4.78;;;1.80;;
60292;SDS011;52402;52.670;6.750;2022-07-09T12:32:12;7.40;;;2.05;;
60292;SDS011;52402;52.670;6.750;2022-07-09T12:34:38;7.40;;;2.28;;
60292;SDS011;52402;52.670;6.750;2022-07-09T12:37:04;5.15;;;1.92;;
60292;SDS011;52402;52.670;6.750;2022-07-09T12:39:29;5.90;;;2.50;;
60292;SDS011;52402;52.670;6.750;2022-07-09T12:41:55;7.00;;;2.20;;
60292;SDS011;52402;52.670;6.750;2022-07-09T12:44:21;6.55;;;2.20;;
60292;SDS011;52402;52.670;6.750;2022-07-09T12:46:47;7.20;;;2.17;;
60292;SDS011;52402;52.670;6.750;2022-07-09T12:49:12;7.78;;;2.50;;
60292;SDS011;52402;52.670;6.750;2022-07-09T12:51:38;5.97;;;1.92;;
60292;SDS011;52402;52.670;6.750;2022-07-09T12:54:03;7.35;;;2.63;;
60292;SDS011;52402;52.670;6.750;2022-07-09T12:56:29;5.97;;;2.00;;
60292;SDS011;52402;52.670;6.750;2022-07-09T12:58:55;6.53;;;2.03;;
60292;SDS011;52402;52.670;6.750;2022-07-09T13:01:20;7.20;;;2.13;;
60292;SDS011;52402;52.670;6.750;2022-07-09T13:03:46;6.22;;;1.90;;
60292;SDS011;52402;52.670;6.750;2022-07-09T13:06:12;6.03;;;1.85;;
60292;SDS011;52402;52.670;6.750;2022-07-09T13:08:56;8.00;;;2.38;;
60292;SDS011;52402;52.670;6.750;2022-07-09T13:11:22;6.30;;;1.80;;
60292;SDS011;52402;52.670;6.750;2022-07-09T13:13:48;7.40;;;2.10;;
60292;SDS011;52402;52.670;6.750;2022-07-09T13:16:14;5.75;;;1.77;;
60292;SDS011;52402;52.670;6.750;2022-07-09T13:18:40;5.35;;;2.05;;
60292;SDS011;52402;52.670;6.750;2022-07-09T13:21:05;4.53;;;1.60;;
60292;SDS011;52402;52.670;6.750;2022-07-09T13:23:31;5.30;;;1.60;;
60292;SDS011;52402;52.670;6.750;2022-07-09T13:25:57;6.35;;;1.88;;
60292;SDS011;52402;52.670;6.750;2022-07-09T13:28:23;5.63;;;1.48;;
60292;SDS011;52402;52.670;6.750;2022-07-09T13:30:49;5.63;;;1.40;;
60292;SDS011;52402;52.670;6.750;2022-07-09T13:33:14;6.20;;;1.70;;
60292;SDS011;52402;52.670;6.750;2022-07-09T13:35:40;5.13;;;1.55;;
60292;SDS011;52402;52.670;6.750;2022-07-09T13:38:06;4.28;;;1.35;;
60292;SDS011;52402;52.670;6.750;2022-07-09T13:40:32;4.93;;;1.50;;
60292;SDS011;52402;52.670;6.750;2022-07-09T13:42:57;5.60;;;1.50;;
60292;SDS011;52402;52.670;6.750;2022-07-09T13:45:23;4.43;;;1.38;;
60292;SDS011;52402;52.670;6.750;2022-07-09T13:47:49;4.60;;;1.30;;
60292;SDS011;52402;52.670;6.750;2022-07-09T13:50:15;3.85;;;1.35;;
60292;SDS011;52402;52.670;6.750;2022-07-09T13:52:40;5.28;;;1.40;;
60292;SDS011;52402;52.670;6.750;2022-07-09T13:55:06;4.82;;;1.38;;
60292;SDS011;52402;52.670;6.750;2022-07-09T13:57:32;5.28;;;1.60;;
60292;SDS011;52402;52.670;6.750;2022-07-09T13:59:58;4.63;;;1.60;;
60292;SDS011;52402;52.670;6.750;2022-07-09T14:02:24;6.72;;;1.70;;
60292;SDS011;52402;52.670;6.750;2022-07-09T14:04:50;3.83;;;1.27;;
60292;SDS011;52402;52.670;6.750;2022-07-09T14:07:16;6.53;;;1.80;;
60292;SDS011;52402;52.670;6.750;2022-07-09T14:09:42;7.15;;;1.48;;
60292;SDS011;52402;52.670;6.750;2022-07-09T14:12:07;5.95;;;1.70;;
60292;SDS011;52402;52.670;6.750;2022-07-09T14:14:33;6.78;;;1.63;;
60292;SDS011;52402;52.670;6.750;2022-07-09T14:17:00;5.05;;;1.70;;
60292;SDS011;52402;52.670;6.750;2022-07-09T14:19:26;5.88;;;1.42;;
60292;SDS011;52402;52.670;6.750;2022-07-09T14:21:51;6.25;;;1.70;;
60292;SDS011;52402;52.670;6.750;2022-07-09T14:24:17;5.47;;;1.42;;
60292;SDS011;52402;52.670;6.750;2022-07-09T14:26:42;6.68;;;1.63;;
60292;SDS011;52402;52.670;6.750;2022-07-09T14:29:12;6.78;;;1.73;;
60292;SDS011;52402;52.670;6.750;2022-07-09T14:31:38;6.03;;;1.60;;
60292;SDS011;52402;52.670;6.750;2022-07-09T14:34:03;5.68;;;1.50;;
60292;SDS011;52402;52.670;6.750;2022-07-09T14:36:29;5.53;;;1.35;;
60292;SDS011;52402;52.670;6.750;2022-07-09T14:38:55;7.00;;;1.58;;
60292;SDS011;52402;52.670;6.750;2022-07-09T14:41:20;6.13;;;1.50;;
60292;SDS011;52402;52.670;6.750;2022-07-09T14:43:46;5.47;;;1.67;;
60292;SDS011;52402;52.670;6.750;2022-07-09T14:46:12;5.78;;;1.33;;
60292;SDS011;52402;52.670;6.750;2022-07-09T14:48:38;5.95;;;1.70;;
60292;SDS011;52402;52.670;6.750;2022-07-09T14:51:05;4.82;;;1.40;;